Time;durP1;ratioP1;P1;durP2;ratioP2;P2;SDS_P1;SDS_P2;PMS_P1;PMS_P2;Temp;Humidity;BMP_temperature;BMP_pressure;BME280_temperature;BME280_humidity;BME280_pressure;Samples;Min_cycle;Max_cycle;Signal;HPM_P1;HPM_P2
2022/12/16 00:02:18;;;;;;;8.73;8.53;;;-1.70;99.90;;;;;;5051174;28;20218;-82
2022/12/16 00:04:45;;;;;;;9.03;8.80;;;-1.70;99.90;;;;;;5058976;28;20267;-82
2022/12/16 00:07:14;;;;;;;8.70;8.50;;;-1.70;99.90;;;;;;5060081;28;20222;-82
2022/12/16 00:09:42;;;;;;;8.70;8.50;;;-1.70;99.90;;;;;;5060093;28;20232;-82
2022/12/16 00:12:20;;;;;;;8.67;8.47;;;-1.80;99.90;;;;;;5060269;28;20234;-83
2022/12/16 00:14:51;;;;;;;8.50;8.30;;;-1.80;99.90;;;;;;5060599;28;20235;-82
2022/12/16 00:17:21;;;;;;;8.60;8.40;;;-1.80;99.90;;;;;;5060228;28;20240;-82
2022/12/16 00:19:51;;;;;;;8.63;8.43;;;-1.80;99.90;;;;;;5060242;28;20265;-82
2022/12/16 00:22:19;;;;;;;8.40;8.20;;;-1.80;99.90;;;;;;5060479;28;20206;-82
2022/12/16 00:24:48;;;;;;;8.50;8.30;;;-1.80;99.90;;;;;;5060650;28;20267;-82
2022/12/16 00:27:21;;;;;;;8.13;7.93;;;-1.80;99.90;;;;;;5060119;28;20209;-82
2022/12/16 00:29:49;;;;;;;8.37;8.17;;;-1.70;99.90;;;;;;5060028;28;20230;-82
2022/12/16 00:32:17;;;;;;;8.40;8.20;;;-1.80;99.90;;;;;;5059459;28;20224;-83
2022/12/16 00:34:46;;;;;;;8.60;8.40;;;-1.80;99.90;;;;;;5060405;28;20241;-84
2022/12/16 00:37:14;;;;;;;8.40;8.20;;;-1.80;99.90;;;;;;5060055;28;20212;-83
2022/12/16 00:39:47;;;;;;;8.30;8.10;;;-1.80;99.90;;;;;;5060642;28;20273;-82
2022/12/16 00:42:15;;;;;;;8.40;8.20;;;-1.80;99.90;;;;;;5060708;28;20230;-83
2022/12/16 00:44:47;;;;;;;8.40;8.20;;;-1.70;99.90;;;;;;5060586;28;20246;-82
2022/12/16 00:47:15;;;;;;;8.40;8.20;;;-1.80;99.90;;;;;;5060192;28;20234;-83
2022/12/16 00:49:43;;;;;;;8.27;8.07;;;-1.80;99.90;;;;;;5060240;28;20225;-82
2022/12/16 00:52:12;;;;;;;8.30;8.10;;;-1.80;99.90;;;;;;5053052;28;20230;-83
2022/12/16 00:54:42;;;;;;;7.90;7.70;;;-1.90;99.90;;;;;;5044017;28;20281;-83
2022/12/16 00:57:12;;;;;;;8.00;7.80;;;-1.80;99.90;;;;;;5044918;28;20226;-83
2022/12/16 00:59:40;;;;;;;8.10;7.90;;;-1.80;99.90;;;;;;5101883;22;20238;-83
2022/12/16 01:02:13;;;;;;;8.13;7.93;;;-1.90;99.90;;;;;;5082952;28;20243;-82
2022/12/16 01:04:41;;;;;;;8.20;8.00;;;-1.80;99.90;;;;;;5081478;28;20224;-83
2022/12/16 01:07:09;;;;;;;8.20;8.00;;;-1.90;99.90;;;;;;5082814;28;20223;-83
2022/12/16 01:09:38;;;;;;;8.10;7.90;;;-1.90;99.90;;;;;;5087006;28;20238;-83
2022/12/16 01:12:08;;;;;;;8.17;7.97;;;-1.90;99.90;;;;;;5091193;28;20243;-82
2022/12/16 01:14:39;;;;;;;8.20;8.00;;;-1.90;99.90;;;;;;5094789;28;20228;-82
2022/12/16 01:17:09;;;;;;;8.20;8.00;;;-1.80;99.90;;;;;;5096612;28;20227;-83
2022/12/16 01:19:37;;;;;;;8.00;7.80;;;-1.80;99.90;;;;;;5091226;28;20289;-84
2022/12/16 01:22:06;;;;;;;7.93;7.73;;;-1.70;99.90;;;;;;5088128;28;20232;-83
2022/12/16 01:24:38;;;;;;;7.87;7.67;;;-1.70;99.90;;;;;;5087229;28;20244;-83
2022/12/16 01:27:05;;;;;;;8.10;7.90;;;-1.80;99.90;;;;;;5086784;28;20311;-83
2022/12/16 01:29:34;;;;;;;7.90;7.70;;;-1.90;99.90;;;;;;5086248;28;20327;-83
2022/12/16 01:32:03;;;;;;;7.90;7.70;;;-1.90;99.90;;;;;;5086146;28;20294;-84
2022/12/16 01:34:35;;;;;;;8.10;7.90;;;-1.90;99.90;;;;;;5087134;28;20285;-83
2022/12/16 01:37:03;;;;;;;8.00;7.80;;;-1.90;99.90;;;;;;5086642;28;20220;-84
2022/12/16 01:39:32;;;;;;;7.80;7.60;;;-1.80;99.90;;;;;;5087403;28;20263;-83
2022/12/16 01:42:04;;;;;;;7.70;7.50;;;-1.80;99.90;;;;;;5092627;28;20265;-83
2022/12/16 01:44:39;;;;;;;7.87;7.67;;;-1.80;99.90;;;;;;5087470;28;20222;-84
2022/12/16 01:47:07;;;;;;;7.67;7.47;;;-1.70;99.90;;;;;;5082111;28;20228;-83
2022/12/16 01:49:47;;;;;;;7.70;7.50;;;-1.70;99.90;;;;;;5085618;28;20246;-83
2022/12/16 01:52:19;;;;;;;7.67;7.47;;;-1.70;99.90;;;;;;5086494;28;20263;-83
2022/12/16 01:54:57;;;;;;;7.90;7.70;;;-1.70;99.90;;;;;;5086461;28;20236;-83
2022/12/16 01:57:29;;;;;;;7.57;7.37;;;-1.80;99.90;;;;;;5085113;28;20254;-83
2022/12/16 01:59:57;;;;;;;7.87;7.67;;;-1.80;99.90;;;;;;5083731;28;20244;-83
2022/12/16 02:02:25;;;;;;;7.80;7.60;;;-1.90;99.90;;;;;;5084844;28;20301;-83
2022/12/16 02:07:42;;;;;;;7.80;7.60;;;-1.80;99.90;;;;;;5085359;28;20217;-83
2022/12/16 02:10:11;;;;;;;8.00;7.80;;;-1.80;99.90;;;;;;5084391;28;20301;-83
2022/12/16 02:12:49;;;;;;;8.00;7.80;;;-1.80;99.90;;;;;;5084225;28;20334;-83
2022/12/16 02:15:36;;;;;;;7.77;7.57;;;-1.70;99.90;;;;;;5084238;28;20330;-83
2022/12/16 02:18:14;;;;;;;7.90;7.70;;;-1.70;99.90;;;;;;5084158;28;20308;-83
2022/12/16 02:21:37;;;;;;;7.80;7.60;;;-1.70;99.90;;;;;;5084010;28;20331;-83
2022/12/16 02:24:59;;;;;;;8.10;7.90;;;-1.70;99.90;;;;;;5084176;28;20225;-83
2022/12/16 02:28:03;;;;;;;8.00;7.80;;;-1.80;99.90;;;;;;5092125;28;20241;-83
2022/12/16 02:31:01;;;;;;;7.83;7.63;;;-1.90;99.90;;;;;;5001173;28;20295;-83
2022/12/16 02:33:55;;;;;;;8.10;7.90;;;-1.90;99.90;;;;;;5087061;28;20277;-83
2022/12/16 02:36:42;;;;;;;8.20;8.00;;;-2.00;99.90;;;;;;5083671;28;20229;-83
2022/12/16 02:39:18;;;;;;;8.10;7.90;;;-2.00;99.90;;;;;;5083957;28;20231;-83
2022/12/16 02:41:58;;;;;;;8.20;8.00;;;-2.00;99.90;;;;;;5084428;28;20232;-83
2022/12/16 02:44:36;;;;;;;8.30;8.10;;;-2.10;99.90;;;;;;5083955;28;20232;-83
2022/12/16 02:47:25;;;;;;;8.40;8.20;;;-2.00;99.90;;;;;;5087803;28;20245;-83
2022/12/16 02:49:54;;;;;;;8.07;7.87;;;-2.00;99.90;;;;;;5084231;28;20234;-83
2022/12/16 02:52:24;;;;;;;8.10;7.90;;;-1.90;99.90;;;;;;5083588;28;20236;-83
2022/12/16 02:55:01;;;;;;;8.10;7.90;;;-2.00;99.90;;;;;;5084022;28;20263;-83
2022/12/16 02:57:56;;;;;;;8.50;8.30;;;-2.00;99.90;;;;;;5083230;28;20707;-84
2022/12/16 03:00:26;;;;;;;8.00;7.80;;;-1.90;99.90;;;;;;5083528;28;20273;-83
2022/12/16 03:03:07;;;;;;;8.20;8.00;;;-2.10;99.90;;;;;;5084882;28;20218;-83
2022/12/16 03:05:44;;;;;;;8.50;8.30;;;-2.10;99.90;;;;;;5088123;28;20235;-83
2022/12/16 03:08:21;;;;;;;8.10;7.90;;;-2.10;99.90;;;;;;5088430;28;20243;-83
2022/12/16 03:10:53;;;;;;;8.40;8.20;;;-2.10;99.90;;;;;;5085132;28;20291;-83
2022/12/16 03:13:22;;;;;;;8.40;8.20;;;-2.10;99.90;;;;;;5084126;28;20246;-83
2022/12/16 03:15:58;;;;;;;8.37;8.17;;;-2.10;99.90;;;;;;5094088;28;20236;-83
2022/12/16 03:18:37;;;;;;;8.30;8.10;;;-2.20;99.90;;;;;;5096130;28;20313;-83
2022/12/16 03:21:07;;;;;;;8.40;8.20;;;-2.10;99.90;;;;;;5095497;28;20229;-83
2022/12/16 03:23:43;;;;;;;8.50;8.30;;;-2.00;99.90;;;;;;5099431;28;20230;-83
2022/12/16 03:26:24;;;;;;;8.33;8.13;;;-2.00;99.90;;;;;;5099727;28;20219;-83
2022/12/16 03:29:00;;;;;;;8.10;7.90;;;-1.90;99.90;;;;;;5088642;28;20275;-83
2022/12/16 03:31:40;;;;;;;8.40;8.20;;;-1.90;99.90;;;;;;5085813;28;20270;-83
2022/12/16 03:34:17;;;;;;;8.43;8.23;;;-1.80;99.90;;;;;;5085427;28;20232;-83
2022/12/16 03:36:56;;;;;;;8.50;8.30;;;-1.80;99.90;;;;;;5084782;28;20295;-83
2022/12/16 03:39:26;;;;;;;7.57;7.37;;;-1.80;99.90;;;;;;5084555;28;20264;-84
2022/12/16 03:41:55;;;;;;;7.93;7.73;;;-1.70;99.90;;;;;;5085198;28;20218;-84
2022/12/16 03:44:25;;;;;;;8.40;8.20;;;-1.70;99.90;;;;;;5083729;28;20241;-84
2022/12/16 03:46:53;;;;;;;8.20;8.00;;;-1.70;99.90;;;;;;5083287;28;20224;-83
2022/12/16 03:49:30;;;;;;;8.30;8.10;;;-1.70;99.90;;;;;;5085393;28;20340;-84
2022/12/16 03:52:03;;;;;;;8.40;8.20;;;-1.80;99.90;;;;;;5084507;28;20234;-84
2022/12/16 03:54:30;;;;;;;8.20;8.00;;;-1.80;99.90;;;;;;5082650;28;20279;-83
2022/12/16 03:57:03;;;;;;;8.27;8.07;;;-1.80;99.90;;;;;;5083582;28;20246;-83
2022/12/16 03:59:30;;;;;;;8.27;8.07;;;-1.80;99.90;;;;;;5082120;28;21414;-84
2022/12/16 04:02:03;;;;;;;8.03;7.83;;;-1.90;99.90;;;;;;5083068;28;20246;-84
2022/12/16 04:04:32;;;;;;;8.40;8.20;;;-1.90;99.90;;;;;;5082927;28;20247;-83
2022/12/16 04:09:46;;;;;;;8.07;7.87;;;-1.90;99.90;;;;;;5082691;28;20233;-84
2022/12/16 04:29:15;;;;;;;8.00;7.80;;;-1.90;99.90;;;;;;5081335;28;20227;-81
2022/12/16 04:31:47;;;;;;;8.10;7.90;;;-1.90;99.90;;;;;;5082987;28;20326;-83
2022/12/16 04:34:26;;;;;;;7.90;7.70;;;-1.90;99.90;;;;;;5082783;28;20236;-84
